sensor_id;sensor_type;location;lat;lon;timestamp;temperature;humidity
12841;DHT22;6487;48.626;12.486;2024-01-15T00:00:03;-2.10;99.90
12841;DHT22;6487;48.626;12.486;2024-01-15T00:02:33;-2.10;99.90
12841;DHT22;6487;48.626;12.486;2024-01-15T00:05:02;-2.10;99.90
12841;DHT22;6487;48.626;12.486;2024-01-15T00:07:32;-2.10;99.90
12841;DHT22;6487;48.626;12.486;2024-01-15T00:10:01;-2.20;99.90
12841;DHT22;6487;48.626;12.486;2024-01-15T00:12:29;-2.10;99.90
12841;DHT22;6487;48.626;12.486;2024-01-15T00:14:58;-2.20;99.90
12841;DHT22;6487;48.626;12.486;2024-01-15T00:17:27;-2.20;99.90
12841;DHT22;6487;48.626;12.486;2024-01-15T00:19:56;-2.20;99.90
12841;DHT22;6487;48.626;12.486;2024-01-15T00:22:25;-2.30;99.90
12841;DHT22;6487;48.626;12.486;2024-01-15T00:24:55;-2.40;99.90
12841;DHT22;6487;48.626;12.486;2024-01-15T00:27:24;-2.40;99.90
12841;DHT22;6487;48.626;12.486;2024-01-15T00:29:53;-2.50;99.90
12841;DHT22;6487;48.626;12.486;2024-01-15T00:32:21;-2.40;99.90
12841;DHT22;6487;48.626;12.486;2024-01-15T00:34:50;-2.50;99.90
12841;DHT22;6487;48.626;12.486;2024-01-15T00:37:18;-2.50;99.90
12841;DHT22;6487;48.626;12.486;2024-01-15T00:39:47;-2.50;99.90
12841;DHT22;6487;48.626;12.486;2024-01-15T00:42:17;-2.60;99.90
12841;DHT22;6487;48.626;12.486;2024-01-15T00:44:48;-2.60;99.90
12841;DHT22;6487;48.626;12.486;2024-01-15T00:47:18;-2.70;99.90
12841;DHT22;6487;48.626;12.486;2024-01-15T00:49:46;-2.70;99.90
12841;DHT22;6487;48.626;12.486;2024-01-15T00:52:15;-2.80;99.90
12841;DHT22;6487;48.626;12.486;2024-01-15T00:54:43;-2.90;99.90
12841;DHT22;6487;48.626;12.486;2024-01-15T00:57:12;-2.90;99.90
12841;DHT22;6487;48.626;12.486;2024-01-15T00:59:42;-3.10;99.90
12841;DHT22;6487;48.626;12.486;2024-01-15T01:02:11;-3.10;99.90
12841;DHT22;6487;48.626;12.486;2024-01-15T01:04:40;-3.10;99.90
12841;DHT22;6487;48.626;12.486;2024-01-15T01:07:09;-3.10;99.90
12841;DHT22;6487;48.626;12.486;2024-01-15T01:09:37;-3.10;99.90
12841;DHT22;6487;48.626;12.486;2024-01-15T01:12:09;-3.00;99.90
12841;DHT22;6487;48.626;12.486;2024-01-15T01:14:39;-2.90;99.90
12841;DHT22;6487;48.626;12.486;2024-01-15T01:17:09;-2.80;99.90
12841;DHT22;6487;48.626;12.486;2024-01-15T01:19:37;-2.70;99.90
12841;DHT22;6487;48.626;12.486;2024-01-15T01:22:06;-2.70;99.90
12841;DHT22;6487;48.626;12.486;2024-01-15T01:24:35;-2.60;99.90
12841;DHT22;6487;48.626;12.486;2024-01-15T01:27:04;-2.40;99.90
12841;DHT22;6487;48.626;12.486;2024-01-15T01:29:32;-2.50;99.90
12841;DHT22;6487;48.626;12.486;2024-01-15T01:32:01;-2.50;99.90
12841;DHT22;6487;48.626;12.486;2024-01-15T01:34:33;-2.50;99.90
12841;DHT22;6487;48.626;12.486;2024-01-15T01:37:08;-2.40;99.90
12841;DHT22;6487;48.626;12.486;2024-01-15T01:39:40;-2.30;99.90
12841;DHT22;6487;48.626;12.486;2024-01-15T01:42:09;-2.40;99.90
12841;DHT22;6487;48.626;12.486;2024-01-15T01:44:37;-2.50;99.90
12841;DHT22;6487;48.626;12.486;2024-01-15T01:47:06;-2.50;99.90
12841;DHT22;6487;48.626;12.486;2024-01-15T01:49:37;-2.40;99.90
12841;DHT22;6487;48.626;12.486;2024-01-15T01:52:06;-2.30;99.90
12841;DHT22;6487;48.626;12.486;2024-01-15T01:54:35;-2.30;99.90
12841;DHT22;6487;48.626;12.486;2024-01-15T01:57:08;-2.40;99.90
12841;DHT22;6487;48.626;12.486;2024-01-15T01:59:37;-2.30;99.90
12841;DHT22;6487;48.626;12.486;2024-01-15T02:02:06;-2.30;99.90
12841;DHT22;6487;48.626;12.486;2024-01-15T02:04:37;-2.40;99.90
12841;DHT22;6487;48.626;12.486;2024-01-15T02:07:06;-2.30;99.90
12841;DHT22;6487;48.626;12.486;2024-01-15T02:09:34;-2.20;99.90
12841;DHT22;6487;48.626;12.486;2024-01-15T02:12:04;-2.00;99.90
12841;DHT22;6487;48.626;12.486;2024-01-15T02:14:36;-2.30;99.90
12841;DHT22;6487;48.626;12.486;2024-01-15T02:17:05;-2.20;99.90
12841;DHT22;6487;48.626;12.486;2024-01-15T02:19:35;-2.20;99.90
12841;DHT22;6487;48.626;12.486;2024-01-15T02:22:04;-2.20;99.90
12841;DHT22;6487;48.626;12.486;2024-01-15T02:24:34;-2.10;99.90
12841;DHT22;6487;48.626;12.486;2024-01-15T02:27:03;-2.10;99.90
12841;DHT22;6487;48.626;12.486;2024-01-15T02:29:32;-2.10;99.90
12841;DHT22;6487;48.626;12.486;2024-01-15T02:32:04;-2.00;99.90
12841;DHT22;6487;48.626;12.486;2024-01-15T02:34:33;-2.00;99.90
12841;DHT22;6487;48.626;12.486;2024-01-15T02:37:01;-1.90;99.90
12841;DHT22;6487;48.626;12.486;2024-01-15T02:39:30;-1.80;99.90
12841;DHT22;6487;48.626;12.486;2024-01-15T02:42:00;-1.80;99.90
12841;DHT22;6487;48.626;12.486;2024-01-15T02:44:28;-1.80;99.90
12841;DHT22;6487;48.626;12.486;2024-01-15T02:46:57;-1.70;99.90
12841;DHT22;6487;48.626;12.486;2024-01-15T02:49:25;-1.90;99.90
12841;DHT22;6487;48.626;12.486;2024-01-15T02:51:54;-1.90;99.90
12841;DHT22;6487;48.626;12.486;2024-01-15T02:54:22;-1.90;99.90
12841;DHT22;6487;48.626;12.486;2024-01-15T02:56:51;-1.90;99.90
12841;DHT22;6487;48.626;12.486;2024-01-15T02:59:20;-1.90;99.90
12841;DHT22;6487;48.626;12.486;2024-01-15T03:01:49;-1.90;99.90
12841;DHT22;6487;48.626;12.486;2024-01-15T03:04:17;-1.80;99.90
12841;DHT22;6487;48.626;12.486;2024-01-15T03:06:45;-1.80;99.90
12841;DHT22;6487;48.626;12.486;2024-01-15T03:09:14;-2.10;99.90
12841;DHT22;6487;48.626;12.486;2024-01-15T03:11:42;-2.00;99.90
12841;DHT22;6487;48.626;12.486;2024-01-15T03:14:11;-1.90;99.90
12841;DHT22;6487;48.626;12.486;2024-01-15T03:16:40;-1.90;99.90
12841;DHT22;6487;48.626;12.486;2024-01-15T03:19:09;-1.90;99.90
12841;DHT22;6487;48.626;12.486;2024-01-15T03:21:37;-1.80;99.90
12841;DHT22;6487;48.626;12.486;2024-01-15T03:24:09;-2.00;99.90
12841;DHT22;6487;48.626;12.486;2024-01-15T03:26:37;-1.90;99.90
12841;DHT22;6487;48.626;12.486;2024-01-15T03:29:05;-1.80;99.90
12841;DHT22;6487;48.626;12.486;2024-01-15T03:31:34;-1.90;99.90
12841;DHT22;6487;48.626;12.486;2024-01-15T03:34:04;-1.90;99.90
12841;DHT22;6487;48.626;12.486;2024-01-15T03:36:32;-2.00;99.90
12841;DHT22;6487;48.626;12.486;2024-01-15T03:39:03;-1.90;99.90
12841;DHT22;6487;48.626;12.486;2024-01-15T03:41:33;-1.90;99.90
12841;DHT22;6487;48.626;12.486;2024-01-15T03:44:01;-1.90;99.90
12841;DHT22;6487;48.626;12.486;2024-01-15T03:46:30;-1.80;99.90
12841;DHT22;6487;48.626;12.486;2024-01-15T03:49:01;-1.90;99.90
12841;DHT22;6487;48.626;12.486;2024-01-15T03:51:31;-1.90;99.90
12841;DHT22;6487;48.626;12.486;2024-01-15T03:53:59;-1.90;99.90
12841;DHT22;6487;48.626;12.486;2024-01-15T03:56:28;-2.00;99.90
12841;DHT22;6487;48.626;12.486;2024-01-15T03:58:56;-2.10;99.90
12841;DHT22;6487;48.626;12.486;2024-01-15T04:01:25;-2.00;99.90
12841;DHT22;6487;48.626;12.486;2024-01-15T04:03:54;-2.10;99.90
12841;DHT22;6487;48.626;12.486;2024-01-15T04:06:22;-2.10;99.90
12841;DHT22;6487;48.626;12.486;2024-01-15T04:08:52;-2.00;99.90
12841;DHT22;6487;48.626;12.486;2024-01-15T04:11:21;-2.00;99.90
12841;DHT22;6487;48.626;12.486;2024-01-15T04:13:50;-2.00;99.90
12841;DHT22;6487;48.626;12.486;2024-01-15T04:16:18;-2.00;99.90
12841;DHT22;6487;48.626;12.486;2024-01-15T04:18:46;-2.10;99.90
12841;DHT22;6487;48.626;12.486;2024-01-15T04:21:17;-2.10;99.90
12841;DHT22;6487;48.626;12.486;2024-01-15T04:23:45;-2.00;99.90
12841;DHT22;6487;48.626;12.486;2024-01-15T04:26:15;-2.00;99.90
12841;DHT22;6487;48.626;12.486;2024-01-15T04:28:44;-2.00;99.90
12841;DHT22;6487;48.626;12.486;2024-01-15T04:31:21;-1.90;99.90
12841;DHT22;6487;48.626;12.486;2024-01-15T04:33:50;-1.90;99.90
12841;DHT22;6487;48.626;12.486;2024-01-15T04:36:19;-1.80;99.90
12841;DHT22;6487;48.626;12.486;2024-01-15T04:38:47;-1.80;99.90
12841;DHT22;6487;48.626;12.486;2024-01-15T04:41:17;-1.80;99.90
12841;DHT22;6487;48.626;12.486;2024-01-15T04:43:46;-1.90;99.90
12841;DHT22;6487;48.626;12.486;2024-01-15T04:46:14;-1.90;99.90
12841;DHT22;6487;48.626;12.486;2024-01-15T04:48:43;-1.90;99.90
12841;DHT22;6487;48.626;12.486;2024-01-15T04:51:14;-1.90;99.90
12841;DHT22;6487;48.626;12.486;2024-01-15T04:53:42;-1.70;99.90
12841;DHT22;6487;48.626;12.486;2024-01-15T04:56:11;-1.70;99.90
12841;DHT22;6487;48.626;12.486;2024-01-15T04:58:40;-1.70;99.90
12841;DHT22;6487;48.626;12.486;2024-01-15T05:01:09;-1.60;99.90
12841;DHT22;6487;48.626;12.486;2024-01-15T05:03:38;-1.70;99.90
12841;DHT22;6487;48.626;12.486;2024-01-15T05:06:06;-1.80;99.90
12841;DHT22;6487;48.626;12.486;2024-01-15T05:08:35;-1.70;99.90
12841;DHT22;6487;48.626;12.486;2024-01-15T05:11:03;-1.70;99.90
12841;DHT22;6487;48.626;12.486;2024-01-15T05:13:32;-1.70;99.90
12841;DHT22;6487;48.626;12.486;2024-01-15T05:16:02;-1.70;99.90
12841;DHT22;6487;48.626;12.486;2024-01-15T05:18:31;-1.70;99.90
12841;DHT22;6487;48.626;12.486;2024-01-15T05:20:59;-1.70;99.90
12841;DHT22;6487;48.626;12.486;2024-01-15T05:23:30;-1.70;99.90
12841;DHT22;6487;48.626;12.486;2024-01-15T05:25:59;-1.60;99.90
12841;DHT22;6487;48.626;12.486;2024-01-15T05:28:30;-1.60;99.90
12841;DHT22;6487;48.626;12.486;2024-01-15T05:31:00;-1.60;99.90
12841;DHT22;6487;48.626;12.486;2024-01-15T05:33:30;-1.50;99.90
12841;DHT22;6487;48.626;12.486;2024-01-15T05:35:58;-1.50;99.90
12841;DHT22;6487;48.626;12.486;2024-01-15T05:38:27;-1.50;99.90
12841;DHT22;6487;48.626;12.486;2024-01-15T05:40:55;-1.50;99.90
12841;DHT22;6487;48.626;12.486;2024-01-15T05:43:34;-1.50;99.90
12841;DHT22;6487;48.626;12.486;2024-01-15T05:46:04;-1.50;99.90
12841;DHT22;6487;48.626;12.486;2024-01-15T05:48:32;-1.40;99.90
12841;DHT22;6487;48.626;12.486;2024-01-15T05:51:03;-1.40;99.90
12841;DHT22;6487;48.626;12.486;2024-01-15T05:53:32;-1.40;99.90
12841;DHT22;6487;48.626;12.486;2024-01-15T05:56:00;-1.40;99.90
12841;DHT22;6487;48.626;12.486;2024-01-15T05:58:33;-1.40;99.90
12841;DHT22;6487;48.626;12.486;2024-01-15T06:01:01;-1.30;99.90
12841;DHT22;6487;48.626;12.486;2024-01-15T06:03:34;-1.30;99.90
12841;DHT22;6487;48.626;12.486;2024-01-15T06:06:03;-1.20;99.90
12841;DHT22;6487;48.626;12.486;2024-01-15T06:08:32;-1.30;99.90
12841;DHT22;6487;48.626;12.486;2024-01-15T06:11:00;-1.20;99.90
12841;DHT22;6487;48.626;12.486;2024-01-15T06:13:30;-1.30;99.90
12841;DHT22;6487;48.626;12.486;2024-01-15T06:15:58;-1.30;99.90
12841;DHT22;6487;48.626;12.486;2024-01-15T06:18:28;-1.20;99.90
12841;DHT22;6487;48.626;12.486;2024-01-15T06:20:56;-1.20;99.90
12841;DHT22;6487;48.626;12.486;2024-01-15T06:23:25;-1.20;99.90
12841;DHT22;6487;48.626;12.486;2024-01-15T06:25:56;-1.10;99.90
12841;DHT22;6487;48.626;12.486;2024-01-15T06:28:24;-1.10;99.90
12841;DHT22;6487;48.626;12.486;2024-01-15T06:30:52;-1.10;99.90
12841;DHT22;6487;48.626;12.486;2024-01-15T06:33:21;-1.10;99.90
12841;DHT22;6487;48.626;12.486;2024-01-15T06:35:51;-1.00;99.90
12841;DHT22;6487;48.626;12.486;2024-01-15T06:38:20;-1.00;99.90
12841;DHT22;6487;48.626;12.486;2024-01-15T06:40:48;-0.90;99.90
12841;DHT22;6487;48.626;12.486;2024-01-15T06:43:19;-0.80;99.90
12841;DHT22;6487;48.626;12.486;2024-01-15T06:45:48;-0.90;99.90
12841;DHT22;6487;48.626;12.486;2024-01-15T06:48:16;-0.90;99.90
12841;DHT22;6487;48.626;12.486;2024-01-15T06:50:45;-1.00;99.90
12841;DHT22;6487;48.626;12.486;2024-01-15T06:53:15;-1.00;99.90
12841;DHT22;6487;48.626;12.486;2024-01-15T06:55:44;-0.90;99.90
12841;DHT22;6487;48.626;12.486;2024-01-15T06:58:12;-0.90;99.90
12841;DHT22;6487;48.626;12.486;2024-01-15T07:00:41;-0.90;99.90
12841;DHT22;6487;48.626;12.486;2024-01-15T07:03:09;-0.90;99.90
12841;DHT22;6487;48.626;12.486;2024-01-15T07:05:38;-0.80;99.90
12841;DHT22;6487;48.626;12.486;2024-01-15T07:08:07;-0.80;99.90
12841;DHT22;6487;48.626;12.486;2024-01-15T07:10:37;-0.80;99.90
12841;DHT22;6487;48.626;12.486;2024-01-15T07:13:05;-0.80;99.90
12841;DHT22;6487;48.626;12.486;2024-01-15T07:15:33;-0.80;99.90
12841;DHT22;6487;48.626;12.486;2024-01-15T07:18:02;-0.70;99.90
12841;DHT22;6487;48.626;12.486;2024-01-15T07:20:31;-0.70;99.90
12841;DHT22;6487;48.626;12.486;2024-01-15T07:23:00;-0.60;99.90
12841;DHT22;6487;48.626;12.486;2024-01-15T07:25:29;-0.60;99.90
12841;DHT22;6487;48.626;12.486;2024-01-15T07:27:59;-0.60;99.90
12841;DHT22;6487;48.626;12.486;2024-01-15T07:30:27;-0.50;99.90
12841;DHT22;6487;48.626;12.486;2024-01-15T07:32:56;-0.50;99.90
12841;DHT22;6487;48.626;12.486;2024-01-15T07:35:24;-0.60;99.90
12841;DHT22;6487;48.626;12.486;2024-01-15T07:37:55;-0.50;99.90
12841;DHT22;6487;48.626;12.486;2024-01-15T07:40:23;-0.50;99.90
12841;DHT22;6487;48.626;12.486;2024-01-15T07:42:52;-0.50;99.90
12841;DHT22;6487;48.626;12.486;2024-01-15T07:45:22;-0.40;99.90
12841;DHT22;6487;48.626;12.486;2024-01-15T07:47:50;-0.40;99.90
12841;DHT22;6487;48.626;12.486;2024-01-15T07:50:19;-0.40;99.90
12841;DHT22;6487;48.626;12.486;2024-01-15T07:52:47;-0.30;99.90
12841;DHT22;6487;48.626;12.486;2024-01-15T07:55:16;-0.30;99.90
12841;DHT22;6487;48.626;12.486;2024-01-15T07:57:45;-0.40;99.90
12841;DHT22;6487;48.626;12.486;2024-01-15T08:00:26;-0.40;99.90
12841;DHT22;6487;48.626;12.486;2024-01-15T08:02:54;-0.30;99.90
12841;DHT22;6487;48.626;12.486;2024-01-15T08:05:23;-0.30;99.90
12841;DHT22;6487;48.626;12.486;2024-01-15T08:07:51;-0.20;99.90
12841;DHT22;6487;48.626;12.486;2024-01-15T08:10:24;-0.20;99.90
12841;DHT22;6487;48.626;12.486;2024-01-15T08:12:53;-0.20;99.90
12841;DHT22;6487;48.626;12.486;2024-01-15T08:15:21;-0.20;99.90
12841;DHT22;6487;48.626;12.486;2024-01-15T08:17:53;-0.20;99.90
12841;DHT22;6487;48.626;12.486;2024-01-15T08:20:22;-0.10;99.90
12841;DHT22;6487;48.626;12.486;2024-01-15T08:22:51;-0.10;99.90
12841;DHT22;6487;48.626;12.486;2024-01-15T08:25:19;-0.10;99.90
12841;DHT22;6487;48.626;12.486;2024-01-15T08:27:48;0.00;99.90
12841;DHT22;6487;48.626;12.486;2024-01-15T08:30:16;0.00;99.90
12841;DHT22;6487;48.626;12.486;2024-01-15T08:32:47;0.10;99.90
12841;DHT22;6487;48.626;12.486;2024-01-15T08:35:17;0.10;99.90
12841;DHT22;6487;48.626;12.486;2024-01-15T08:37:49;0.10;99.90
12841;DHT22;6487;48.626;12.486;2024-01-15T08:40:18;0.10;99.90
12841;DHT22;6487;48.626;12.486;2024-01-15T08:42:50;0.10;99.90
12841;DHT22;6487;48.626;12.486;2024-01-15T08:45:19;0.20;99.90
12841;DHT22;6487;48.626;12.486;2024-01-15T08:47:48;0.20;99.90
12841;DHT22;6487;48.626;12.486;2024-01-15T08:50:19;0.30;99.90
12841;DHT22;6487;48.626;12.486;2024-01-15T08:52:47;0.30;99.90
12841;DHT22;6487;48.626;12.486;2024-01-15T08:55:16;0.50;99.90
12841;DHT22;6487;48.626;12.486;2024-01-15T08:57:44;0.50;99.90
12841;DHT22;6487;48.626;12.486;2024-01-15T09:00:14;0.50;99.90
12841;DHT22;6487;48.626;12.486;2024-01-15T09:02:44;0.50;99.90
12841;DHT22;6487;48.626;12.486;2024-01-15T09:05:12;0.40;99.90
12841;DHT22;6487;48.626;12.486;2024-01-15T09:07:43;0.60;99.90
12841;DHT22;6487;48.626;12.486;2024-01-15T09:10:12;0.60;99.90
12841;DHT22;6487;48.626;12.486;2024-01-15T09:12:41;0.70;99.90
12841;DHT22;6487;48.626;12.486;2024-01-15T09:15:10;0.70;99.90
12841;DHT22;6487;48.626;12.486;2024-01-15T09:17:39;0.70;99.90
12841;DHT22;6487;48.626;12.486;2024-01-15T09:20:08;0.80;99.90
12841;DHT22;6487;48.626;12.486;2024-01-15T09:22:38;0.80;99.90
12841;DHT22;6487;48.626;12.486;2024-01-15T09:25:09;0.90;99.90
12841;DHT22;6487;48.626;12.486;2024-01-15T09:27:37;0.90;99.90
12841;DHT22;6487;48.626;12.486;2024-01-15T09:30:07;0.90;99.90
12841;DHT22;6487;48.626;12.486;2024-01-15T09:32:36;1.00;99.90
12841;DHT22;6487;48.626;12.486;2024-01-15T09:35:06;1.00;99.90
12841;DHT22;6487;48.626;12.486;2024-01-15T09:37:35;1.00;99.90
12841;DHT22;6487;48.626;12.486;2024-01-15T09:40:15;1.00;99.90
12841;DHT22;6487;48.626;12.486;2024-01-15T09:42:44;1.00;99.90
12841;DHT22;6487;48.626;12.486;2024-01-15T09:45:13;1.00;99.90
12841;DHT22;6487;48.626;12.486;2024-01-15T09:47:43;1.00;99.90
12841;DHT22;6487;48.626;12.486;2024-01-15T09:50:13;1.00;99.90
12841;DHT22;6487;48.626;12.486;2024-01-15T09:52:43;1.00;99.90
12841;DHT22;6487;48.626;12.486;2024-01-15T09:55:15;1.10;99.90
12841;DHT22;6487;48.626;12.486;2024-01-15T09:57:44;1.10;99.90
12841;DHT22;6487;48.626;12.486;2024-01-15T10:00:15;1.10;99.90
12841;DHT22;6487;48.626;12.486;2024-01-15T10:02:46;1.20;99.90
12841;DHT22;6487;48.626;12.486;2024-01-15T10:05:15;1.20;99.90
12841;DHT22;6487;48.626;12.486;2024-01-15T10:07:43;1.20;99.90
12841;DHT22;6487;48.626;12.486;2024-01-15T10:10:15;1.20;99.90
12841;DHT22;6487;48.626;12.486;2024-01-15T10:12:44;1.10;99.90
12841;DHT22;6487;48.626;12.486;2024-01-15T10:15:12;1.20;99.90
12841;DHT22;6487;48.626;12.486;2024-01-15T10:17:41;1.20;99.90
12841;DHT22;6487;48.626;12.486;2024-01-15T10:20:11;1.20;99.90
12841;DHT22;6487;48.626;12.486;2024-01-15T10:22:41;1.10;99.90
12841;DHT22;6487;48.626;12.486;2024-01-15T10:25:11;1.30;99.90
12841;DHT22;6487;48.626;12.486;2024-01-15T10:27:41;1.30;99.90
12841;DHT22;6487;48.626;12.486;2024-01-15T10:30:12;1.40;99.90
12841;DHT22;6487;48.626;12.486;2024-01-15T10:32:57;1.20;99.90
12841;DHT22;6487;48.626;12.486;2024-01-15T10:35:27;1.30;99.90
12841;DHT22;6487;48.626;12.486;2024-01-15T10:37:57;1.50;99.90
12841;DHT22;6487;48.626;12.486;2024-01-15T10:40:25;1.60;99.90
12841;DHT22;6487;48.626;12.486;2024-01-15T10:42:56;1.40;99.90
12841;DHT22;6487;48.626;12.486;2024-01-15T10:45:24;1.50;99.90
12841;DHT22;6487;48.626;12.486;2024-01-15T10:47:54;1.60;99.90
12841;DHT22;6487;48.626;12.486;2024-01-15T10:50:26;1.50;99.90
12841;DHT22;6487;48.626;12.486;2024-01-15T10:52:55;1.60;99.90
12841;DHT22;6487;48.626;12.486;2024-01-15T10:55:25;1.60;99.90
12841;DHT22;6487;48.626;12.486;2024-01-15T10:57:56;1.60;99.90
12841;DHT22;6487;48.626;12.486;2024-01-15T11:00:25;1.60;99.90
12841;DHT22;6487;48.626;12.486;2024-01-15T11:02:55;1.60;99.90
12841;DHT22;6487;48.626;12.486;2024-01-15T11:05:25;1.70;99.90
12841;DHT22;6487;48.626;12.486;2024-01-15T11:07:55;1.70;99.90
12841;DHT22;6487;48.626;12.486;2024-01-15T11:10:41;1.70;99.90
12841;DHT22;6487;48.626;12.486;2024-01-15T11:13:20;1.80;99.90
12841;DHT22;6487;48.626;12.486;2024-01-15T11:16:01;1.80;99.90
12841;DHT22;6487;48.626;12.486;2024-01-15T11:18:31;2.00;99.90
12841;DHT22;6487;48.626;12.486;2024-01-15T11:21:24;1.90;99.90
12841;DHT22;6487;48.626;12.486;2024-01-15T11:23:56;1.90;99.90
12841;DHT22;6487;48.626;12.486;2024-01-15T11:26:35;1.90;99.90
12841;DHT22;6487;48.626;12.486;2024-01-15T11:29:06;1.90;99.90
12841;DHT22;6487;48.626;12.486;2024-01-15T11:31:57;1.90;99.90
12841;DHT22;6487;48.626;12.486;2024-01-15T11:34:55;1.70;99.90
12841;DHT22;6487;48.626;12.486;2024-01-15T11:37:58;1.80;99.90
12841;DHT22;6487;48.626;12.486;2024-01-15T11:40:38;2.00;99.90
12841;DHT22;6487;48.626;12.486;2024-01-15T11:43:09;2.00;99.90
12841;DHT22;6487;48.626;12.486;2024-01-15T11:45:41;1.90;99.90
12841;DHT22;6487;48.626;12.486;2024-01-15T11:48:12;1.80;99.90
12841;DHT22;6487;48.626;12.486;2024-01-15T11:50:44;1.90;99.90
12841;DHT22;6487;48.626;12.486;2024-01-15T11:53:17;2.00;99.90
12841;DHT22;6487;48.626;12.486;2024-01-15T11:55:51;1.80;99.90
12841;DHT22;6487;48.626;12.486;2024-01-15T11:58:20;2.00;99.90
12841;DHT22;6487;48.626;12.486;2024-01-15T12:00:54;2.00;99.90
12841;DHT22;6487;48.626;12.486;2024-01-15T12:03:23;2.00;99.90
12841;DHT22;6487;48.626;12.486;2024-01-15T12:05:52;2.10;99.90
12841;DHT22;6487;48.626;12.486;2024-01-15T12:08:22;2.10;99.90
12841;DHT22;6487;48.626;12.486;2024-01-15T12:10:51;2.10;99.90
12841;DHT22;6487;48.626;12.486;2024-01-15T12:13:20;2.10;99.90
12841;DHT22;6487;48.626;12.486;2024-01-15T12:15:49;2.10;99.90
12841;DHT22;6487;48.626;12.486;2024-01-15T12:18:19;2.20;99.90
12841;DHT22;6487;48.626;12.486;2024-01-15T12:20:48;2.10;99.90
12841;DHT22;6487;48.626;12.486;2024-01-15T12:23:17;2.20;99.90
12841;DHT22;6487;48.626;12.486;2024-01-15T12:25:46;2.00;99.90
12841;DHT22;6487;48.626;12.486;2024-01-15T12:28:15;2.20;99.90
12841;DHT22;6487;48.626;12.486;2024-01-15T12:30:46;2.20;99.90
12841;DHT22;6487;48.626;12.486;2024-01-15T12:33:19;2.40;99.90
12841;DHT22;6487;48.626;12.486;2024-01-15T12:35:48;2.40;99.90
12841;DHT22;6487;48.626;12.486;2024-01-15T12:38:19;2.30;99.90
12841;DHT22;6487;48.626;12.486;2024-01-15T12:40:48;2.30;99.90
12841;DHT22;6487;48.626;12.486;2024-01-15T12:43:17;2.40;99.90
12841;DHT22;6487;48.626;12.486;2024-01-15T12:45:46;2.30;99.90
12841;DHT22;6487;48.626;12.486;2024-01-15T12:48:15;2.20;99.90
12841;DHT22;6487;48.626;12.486;2024-01-15T12:50:47;2.40;99.90
12841;DHT22;6487;48.626;12.486;2024-01-15T12:53:15;2.50;99.90
12841;DHT22;6487;48.626;12.486;2024-01-15T12:55:47;2.50;99.90
12841;DHT22;6487;48.626;12.486;2024-01-15T12:58:15;2.40;99.90
12841;DHT22;6487;48.626;12.486;2024-01-15T13:00:49;2.30;99.90
12841;DHT22;6487;48.626;12.486;2024-01-15T13:03:18;2.40;99.90
12841;DHT22;6487;48.626;12.486;2024-01-15T13:05:48;2.20;99.90
12841;DHT22;6487;48.626;12.486;2024-01-15T13:08:18;2.40;99.90
12841;DHT22;6487;48.626;12.486;2024-01-15T13:10:46;2.30;99.90
12841;DHT22;6487;48.626;12.486;2024-01-15T13:13:15;2.30;99.90
12841;DHT22;6487;48.626;12.486;2024-01-15T13:15:43;2.40;99.90
12841;DHT22;6487;48.626;12.486;2024-01-15T13:18:12;2.30;99.90
12841;DHT22;6487;48.626;12.486;2024-01-15T13:20:43;2.40;99.90
12841;DHT22;6487;48.626;12.486;2024-01-15T13:23:14;2.20;99.90
12841;DHT22;6487;48.626;12.486;2024-01-15T13:25:43;2.30;99.90
12841;DHT22;6487;48.626;12.486;2024-01-15T13:28:11;2.40;99.90
12841;DHT22;6487;48.626;12.486;2024-01-15T13:30:40;2.30;99.90
12841;DHT22;6487;48.626;12.486;2024-01-15T13:33:12;2.30;99.90
12841;DHT22;6487;48.626;12.486;2024-01-15T13:35:43;2.40;99.90
12841;DHT22;6487;48.626;12.486;2024-01-15T13:38:12;2.30;99.90
12841;DHT22;6487;48.626;12.486;2024-01-15T13:40:42;2.30;99.90
12841;DHT22;6487;48.626;12.486;2024-01-15T13:43:15;2.40;99.90
12841;DHT22;6487;48.626;12.486;2024-01-15T13:45:45;2.20;99.90
12841;DHT22;6487;48.626;12.486;2024-01-15T13:48:14;2.20;99.90
12841;DHT22;6487;48.626;12.486;2024-01-15T13:50:42;2.10;99.90
12841;DHT22;6487;48.626;12.486;2024-01-15T13:53:11;2.20;99.90
12841;DHT22;6487;48.626;12.486;2024-01-15T13:55:41;2.20;99.90
12841;DHT22;6487;48.626;12.486;2024-01-15T13:58:12;2.20;99.90
12841;DHT22;6487;48.626;12.486;2024-01-15T14:00:41;2.10;99.90
12841;DHT22;6487;48.626;12.486;2024-01-15T14:03:10;2.10;99.90
12841;DHT22;6487;48.626;12.486;2024-01-15T14:05:38;2.20;99.90
12841;DHT22;6487;48.626;12.486;2024-01-15T14:08:07;2.30;99.90
12841;DHT22;6487;48.626;12.486;2024-01-15T14:10:36;2.30;99.90
12841;DHT22;6487;48.626;12.486;2024-01-15T14:13:05;2.20;99.90
12841;DHT22;6487;48.626;12.486;2024-01-15T14:15:34;2.20;99.90
12841;DHT22;6487;48.626;12.486;2024-01-15T14:18:04;2.20;99.90
12841;DHT22;6487;48.626;12.486;2024-01-15T14:20:36;2.30;99.90
12841;DHT22;6487;48.626;12.486;2024-01-15T14:23:04;2.20;99.90
12841;DHT22;6487;48.626;12.486;2024-01-15T14:25:33;2.20;99.90
12841;DHT22;6487;48.626;12.486;2024-01-15T14:28:02;2.10;99.90
12841;DHT22;6487;48.626;12.486;2024-01-15T14:30:32;2.20;99.90
12841;DHT22;6487;48.626;12.486;2024-01-15T14:33:01;2.20;99.90
12841;DHT22;6487;48.626;12.486;2024-01-15T14:35:29;2.20;99.90
12841;DHT22;6487;48.626;12.486;2024-01-15T14:37:58;2.20;99.90
12841;DHT22;6487;48.626;12.486;2024-01-15T14:40:26;2.30;99.90
12841;DHT22;6487;48.626;12.486;2024-01-15T14:42:56;2.30;99.90
12841;DHT22;6487;48.626;12.486;2024-01-15T14:45:25;2.10;99.90
12841;DHT22;6487;48.626;12.486;2024-01-15T14:47:55;2.20;99.90
12841;DHT22;6487;48.626;12.486;2024-01-15T14:50:25;2.20;99.90
12841;DHT22;6487;48.626;12.486;2024-01-15T14:52:53;2.10;99.90
12841;DHT22;6487;48.626;12.486;2024-01-15T14:55:22;1.70;99.90
12841;DHT22;6487;48.626;12.486;2024-01-15T14:57:52;1.70;99.90
12841;DHT22;6487;48.626;12.486;2024-01-15T15:00:21;1.80;99.90
12841;DHT22;6487;48.626;12.486;2024-01-15T15:02:50;1.90;99.90
12841;DHT22;6487;48.626;12.486;2024-01-15T15:05:20;1.80;99.90
12841;DHT22;6487;48.626;12.486;2024-01-15T15:07:49;1.70;99.90
12841;DHT22;6487;48.626;12.486;2024-01-15T15:10:17;1.60;99.90
12841;DHT22;6487;48.626;12.486;2024-01-15T15:12:46;1.60;99.90
12841;DHT22;6487;48.626;12.486;2024-01-15T15:15:14;1.70;99.90
12841;DHT22;6487;48.626;12.486;2024-01-15T15:17:48;1.60;99.90
12841;DHT22;6487;48.626;12.486;2024-01-15T15:20:17;1.60;99.90
12841;DHT22;6487;48.626;12.486;2024-01-15T15:22:47;1.80;99.90
12841;DHT22;6487;48.626;12.486;2024-01-15T15:25:16;1.80;99.90
12841;DHT22;6487;48.626;12.486;2024-01-15T15:27:44;1.70;99.90
12841;DHT22;6487;48.626;12.486;2024-01-15T15:30:14;1.70;99.90
12841;DHT22;6487;48.626;12.486;2024-01-15T15:32:43;1.70;99.90
12841;DHT22;6487;48.626;12.486;2024-01-15T15:35:11;1.70;99.90
12841;DHT22;6487;48.626;12.486;2024-01-15T15:37:40;1.60;99.90
12841;DHT22;6487;48.626;12.486;2024-01-15T15:40:10;1.70;99.90
12841;DHT22;6487;48.626;12.486;2024-01-15T15:42:40;1.70;99.90
12841;DHT22;6487;48.626;12.486;2024-01-15T15:45:09;1.70;99.90
12841;DHT22;6487;48.626;12.486;2024-01-15T15:47:38;1.70;99.90
12841;DHT22;6487;48.626;12.486;2024-01-15T15:50:07;1.80;99.90
12841;DHT22;6487;48.626;12.486;2024-01-15T15:52:37;1.80;99.90